sensor_id;sensor_type;location;lat;lon;timestamp;temperature;humidity
51988;DHT22;38003;52.012;4.346;2022-07-05T00:01:42;21.30;55.90
51988;DHT22;38003;52.012;4.346;2022-07-05T00:04:10;21.30;55.70
51988;DHT22;38003;52.012;4.346;2022-07-05T00:06:38;21.30;55.80
51988;DHT22;38003;52.012;4.346;2022-07-05T00:09:28;21.20;56.10
51988;DHT22;38003;52.012;4.346;2022-07-05T00:11:56;21.10;56.40
51988;DHT22;38003;52.012;4.346;2022-07-05T00:14:24;21.10;56.70
51988;DHT22;38003;52.012;4.346;2022-07-05T00:16:52;21.00;56.60
51988;DHT22;38003;52.012;4.346;2022-07-05T00:19:20;21.00;56.90
51988;DHT22;38003;52.012;4.346;2022-07-05T00:21:48;21.00;56.80
51988;DHT22;38003;52.012;4.346;2022-07-05T00:24:16;21.00;56.80
51988;DHT22;38003;52.012;4.346;2022-07-05T00:26:45;20.90;57.40
51988;DHT22;38003;52.012;4.346;2022-07-05T00:29:13;20.80;57.90
51988;DHT22;38003;52.012;4.346;2022-07-05T00:31:41;20.90;57.70
51988;DHT22;38003;52.012;4.346;2022-07-05T00:34:10;20.90;57.30
51988;DHT22;38003;52.012;4.346;2022-07-05T00:36:38;20.80;57.60
51988;DHT22;38003;52.012;4.346;2022-07-05T00:39:07;21.30;57.90
51988;DHT22;38003;52.012;4.346;2022-07-05T00:41:35;20.80;57.70
51988;DHT22;38003;52.012;4.346;2022-07-05T00:44:07;20.80;57.70
51988;DHT22;38003;52.012;4.346;2022-07-05T00:46:36;20.70;59.00
51988;DHT22;38003;52.012;4.346;2022-07-05T00:49:05;20.70;57.80
51988;DHT22;38003;52.012;4.346;2022-07-05T00:51:35;20.60;58.30
51988;DHT22;38003;52.012;4.346;2022-07-05T00:54:22;20.60;58.30
51988;DHT22;38003;52.012;4.346;2022-07-05T00:56:50;20.50;58.30
51988;DHT22;38003;52.012;4.346;2022-07-05T00:59:25;20.50;58.20
51988;DHT22;38003;52.012;4.346;2022-07-05T01:01:53;20.50;58.20
51988;DHT22;38003;52.012;4.346;2022-07-05T01:04:22;20.50;58.00
51988;DHT22;38003;52.012;4.346;2022-07-05T01:06:51;20.50;58.40
51988;DHT22;38003;52.012;4.346;2022-07-05T01:09:20;20.50;58.70
51988;DHT22;38003;52.012;4.346;2022-07-05T01:11:50;20.50;58.50
51988;DHT22;38003;52.012;4.346;2022-07-05T01:14:19;20.40;58.60
51988;DHT22;38003;52.012;4.346;2022-07-05T01:16:49;20.40;58.50
51988;DHT22;38003;52.012;4.346;2022-07-05T01:19:19;20.30;59.10
51988;DHT22;38003;52.012;4.346;2022-07-05T01:21:49;20.30;59.10
51988;DHT22;38003;52.012;4.346;2022-07-05T01:24:19;20.40;59.40
51988;DHT22;38003;52.012;4.346;2022-07-05T01:26:49;20.20;59.30
51988;DHT22;38003;52.012;4.346;2022-07-05T01:29:17;20.20;59.20
51988;DHT22;38003;52.012;4.346;2022-07-05T01:31:46;20.20;59.50
51988;DHT22;38003;52.012;4.346;2022-07-05T01:34:14;20.10;59.60
51988;DHT22;38003;52.012;4.346;2022-07-05T01:36:42;20.10;59.60
51988;DHT22;38003;52.012;4.346;2022-07-05T01:39:10;20.00;60.00
51988;DHT22;38003;52.012;4.346;2022-07-05T01:41:39;20.20;59.60
51988;DHT22;38003;52.012;4.346;2022-07-05T01:44:07;20.20;59.40
51988;DHT22;38003;52.012;4.346;2022-07-05T01:46:36;20.10;59.70
51988;DHT22;38003;52.012;4.346;2022-07-05T01:49:09;19.90;59.80
51988;DHT22;38003;52.012;4.346;2022-07-05T01:51:42;20.00;59.90
51988;DHT22;38003;52.012;4.346;2022-07-05T01:54:12;20.00;60.20
51988;DHT22;38003;52.012;4.346;2022-07-05T01:56:41;19.90;60.10
51988;DHT22;38003;52.012;4.346;2022-07-05T01:59:11;19.90;60.10
51988;DHT22;38003;52.012;4.346;2022-07-05T02:01:39;20.00;59.80
51988;DHT22;38003;52.012;4.346;2022-07-05T02:04:09;20.00;60.60
51988;DHT22;38003;52.012;4.346;2022-07-05T02:06:37;19.90;60.10
51988;DHT22;38003;52.012;4.346;2022-07-05T02:09:06;19.80;60.20
51988;DHT22;38003;52.012;4.346;2022-07-05T02:11:35;19.80;60.30
51988;DHT22;38003;52.012;4.346;2022-07-05T02:14:04;19.90;60.30
51988;DHT22;38003;52.012;4.346;2022-07-05T02:16:32;19.70;60.30
51988;DHT22;38003;52.012;4.346;2022-07-05T02:19:00;19.80;60.10
51988;DHT22;38003;52.012;4.346;2022-07-05T02:21:29;19.70;60.20
51988;DHT22;38003;52.012;4.346;2022-07-05T02:23:57;19.70;60.20
51988;DHT22;38003;52.012;4.346;2022-07-05T02:26:24;20.00;60.50
51988;DHT22;38003;52.012;4.346;2022-07-05T02:28:53;19.80;60.40
51988;DHT22;38003;52.012;4.346;2022-07-05T02:31:22;19.60;60.60
51988;DHT22;38003;52.012;4.346;2022-07-05T02:33:50;19.60;60.40
51988;DHT22;38003;52.012;4.346;2022-07-05T02:36:19;19.70;60.40
51988;DHT22;38003;52.012;4.346;2022-07-05T02:38:47;19.30;60.20
51988;DHT22;38003;52.012;4.346;2022-07-05T02:41:15;19.80;60.70
51988;DHT22;38003;52.012;4.346;2022-07-05T02:43:43;19.60;60.80
51988;DHT22;38003;52.012;4.346;2022-07-05T02:46:11;19.80;60.90
51988;DHT22;38003;52.012;4.346;2022-07-05T02:48:41;19.70;60.80
51988;DHT22;38003;52.012;4.346;2022-07-05T02:51:09;19.70;61.00
51988;DHT22;38003;52.012;4.346;2022-07-05T02:53:37;19.80;61.00
51988;DHT22;38003;52.012;4.346;2022-07-05T02:56:05;19.60;61.00
51988;DHT22;38003;52.012;4.346;2022-07-05T02:58:33;19.70;61.20
51988;DHT22;38003;52.012;4.346;2022-07-05T03:01:01;20.10;61.30
51988;DHT22;38003;52.012;4.346;2022-07-05T03:03:29;19.80;61.10
51988;DHT22;38003;52.012;4.346;2022-07-05T03:05:58;19.90;61.10
51988;DHT22;38003;52.012;4.346;2022-07-05T03:08:26;19.90;61.40
51988;DHT22;38003;52.012;4.346;2022-07-05T03:10:54;19.80;61.20
51988;DHT22;38003;52.012;4.346;2022-07-05T03:13:22;19.80;60.90
51988;DHT22;38003;52.012;4.346;2022-07-05T03:15:50;19.80;61.20
51988;DHT22;38003;52.012;4.346;2022-07-05T03:18:18;19.80;61.10
51988;DHT22;38003;52.012;4.346;2022-07-05T03:20:46;20.00;61.30
51988;DHT22;38003;52.012;4.346;2022-07-05T03:23:15;19.90;61.70
51988;DHT22;38003;52.012;4.346;2022-07-05T03:25:43;19.90;60.90
51988;DHT22;38003;52.012;4.346;2022-07-05T03:28:11;19.80;61.10
51988;DHT22;38003;52.012;4.346;2022-07-05T03:30:39;19.90;61.10
51988;DHT22;38003;52.012;4.346;2022-07-05T03:33:07;19.80;61.10
51988;DHT22;38003;52.012;4.346;2022-07-05T03:35:35;19.80;61.10
51988;DHT22;38003;52.012;4.346;2022-07-05T03:38:03;20.10;61.30
51988;DHT22;38003;52.012;4.346;2022-07-05T03:40:32;19.80;61.10
51988;DHT22;38003;52.012;4.346;2022-07-05T03:43:00;19.90;61.20
51988;DHT22;38003;52.012;4.346;2022-07-05T03:45:28;19.80;61.00
51988;DHT22;38003;52.012;4.346;2022-07-05T03:47:57;19.80;60.80
51988;DHT22;38003;52.012;4.346;2022-07-05T03:50:46;19.90;61.00
51988;DHT22;38003;52.012;4.346;2022-07-05T03:53:13;19.90;61.20
51988;DHT22;38003;52.012;4.346;2022-07-05T03:55:43;19.80;61.10
51988;DHT22;38003;52.012;4.346;2022-07-05T03:58:11;19.90;61.20
51988;DHT22;38003;52.012;4.346;2022-07-05T04:00:39;19.70;61.30
51988;DHT22;38003;52.012;4.346;2022-07-05T04:03:07;19.70;61.50
51988;DHT22;38003;52.012;4.346;2022-07-05T04:05:35;19.70;61.50
51988;DHT22;38003;52.012;4.346;2022-07-05T04:08:03;19.60;61.50
51988;DHT22;38003;52.012;4.346;2022-07-05T04:10:31;19.50;61.60
51988;DHT22;38003;52.012;4.346;2022-07-05T04:13:00;19.50;61.40
51988;DHT22;38003;52.012;4.346;2022-07-05T04:15:28;19.60;61.50
51988;DHT22;38003;52.012;4.346;2022-07-05T04:17:56;19.60;61.40
51988;DHT22;38003;52.012;4.346;2022-07-05T04:20:24;19.50;61.30
51988;DHT22;38003;52.012;4.346;2022-07-05T04:22:52;19.60;61.30
51988;DHT22;38003;52.012;4.346;2022-07-05T04:25:20;19.60;61.60
51988;DHT22;38003;52.012;4.346;2022-07-05T04:27:49;19.60;61.40
51988;DHT22;38003;52.012;4.346;2022-07-05T04:30:20;19.60;61.60
51988;DHT22;38003;52.012;4.346;2022-07-05T04:32:48;19.80;61.80
51988;DHT22;38003;52.012;4.346;2022-07-05T04:35:17;19.60;61.60
51988;DHT22;38003;52.012;4.346;2022-07-05T04:37:45;19.60;61.70
51988;DHT22;38003;52.012;4.346;2022-07-05T04:40:14;19.60;61.70
51988;DHT22;38003;52.012;4.346;2022-07-05T04:42:42;19.70;61.50
51988;DHT22;38003;52.012;4.346;2022-07-05T04:45:10;19.70;61.60
51988;DHT22;38003;52.012;4.346;2022-07-05T04:47:39;20.30;61.90
51988;DHT22;38003;52.012;4.346;2022-07-05T04:50:08;19.80;61.60
51988;DHT22;38003;52.012;4.346;2022-07-05T04:52:36;19.80;61.40
51988;DHT22;38003;52.012;4.346;2022-07-05T04:55:05;19.90;61.30
51988;DHT22;38003;52.012;4.346;2022-07-05T04:57:37;19.90;61.60
51988;DHT22;38003;52.012;4.346;2022-07-05T05:00:07;20.00;61.50
51988;DHT22;38003;52.012;4.346;2022-07-05T05:02:35;20.00;61.20
51988;DHT22;38003;52.012;4.346;2022-07-05T05:05:06;20.00;61.00
51988;DHT22;38003;52.012;4.346;2022-07-05T05:07:34;20.20;61.20
51988;DHT22;38003;52.012;4.346;2022-07-05T05:10:05;20.20;61.10
51988;DHT22;38003;52.012;4.346;2022-07-05T05:12:33;20.20;61.10
51988;DHT22;38003;52.012;4.346;2022-07-05T05:15:01;20.30;60.80
51988;DHT22;38003;52.012;4.346;2022-07-05T05:17:34;20.50;60.90
51988;DHT22;38003;52.012;4.346;2022-07-05T05:20:09;20.50;60.20
51988;DHT22;38003;52.012;4.346;2022-07-05T05:22:38;20.50;60.10
51988;DHT22;38003;52.012;4.346;2022-07-05T05:25:06;20.50;60.10
51988;DHT22;38003;52.012;4.346;2022-07-05T05:27:35;20.50;59.90
51988;DHT22;38003;52.012;4.346;2022-07-05T05:30:03;20.60;59.50
51988;DHT22;38003;52.012;4.346;2022-07-05T05:32:31;21.00;59.40
51988;DHT22;38003;52.012;4.346;2022-07-05T05:34:59;20.70;59.00
51988;DHT22;38003;52.012;4.346;2022-07-05T05:37:28;20.70;58.80
51988;DHT22;38003;52.012;4.346;2022-07-05T05:39:56;20.80;58.40
51988;DHT22;38003;52.012;4.346;2022-07-05T05:42:24;20.80;58.10
51988;DHT22;38003;52.012;4.346;2022-07-05T05:44:52;20.80;58.30
51988;DHT22;38003;52.012;4.346;2022-07-05T05:47:20;20.80;58.20
51988;DHT22;38003;52.012;4.346;2022-07-05T05:49:48;20.80;58.00
51988;DHT22;38003;52.012;4.346;2022-07-05T05:52:16;20.70;57.40
51988;DHT22;38003;52.012;4.346;2022-07-05T05:54:46;20.70;57.20
51988;DHT22;38003;52.012;4.346;2022-07-05T05:57:14;20.70;57.10
51988;DHT22;38003;52.012;4.346;2022-07-05T05:59:42;21.00;57.50
51988;DHT22;38003;52.012;4.346;2022-07-05T06:02:10;20.60;57.10
51988;DHT22;38003;52.012;4.346;2022-07-05T06:04:38;20.70;56.90
51988;DHT22;38003;52.012;4.346;2022-07-05T06:07:06;20.70;56.70
51988;DHT22;38003;52.012;4.346;2022-07-05T06:09:34;20.70;56.50
51988;DHT22;38003;52.012;4.346;2022-07-05T06:12:04;20.70;56.50
51988;DHT22;38003;52.012;4.346;2022-07-05T06:14:32;20.60;56.50
51988;DHT22;38003;52.012;4.346;2022-07-05T06:17:00;20.70;56.40
51988;DHT22;38003;52.012;4.346;2022-07-05T06:19:28;20.80;56.00
51988;DHT22;38003;52.012;4.346;2022-07-05T06:21:56;20.70;56.00
51988;DHT22;38003;52.012;4.346;2022-07-05T06:24:26;20.80;55.80
51988;DHT22;38003;52.012;4.346;2022-07-05T06:26:54;20.90;55.80
51988;DHT22;38003;52.012;4.346;2022-07-05T06:29:23;21.10;56.00
51988;DHT22;38003;52.012;4.346;2022-07-05T06:31:51;21.00;55.60
51988;DHT22;38003;52.012;4.346;2022-07-05T06:34:19;21.00;55.70
51988;DHT22;38003;52.012;4.346;2022-07-05T06:36:48;21.00;55.50
51988;DHT22;38003;52.012;4.346;2022-07-05T06:39:15;21.10;55.40
51988;DHT22;38003;52.012;4.346;2022-07-05T06:41:43;20.90;54.70
51988;DHT22;38003;52.012;4.346;2022-07-05T06:44:11;21.10;54.30
51988;DHT22;38003;52.012;4.346;2022-07-05T06:47:01;20.90;53.50
51988;DHT22;38003;52.012;4.346;2022-07-05T06:49:29;21.10;54.10
51988;DHT22;38003;52.012;4.346;2022-07-05T06:51:57;21.00;54.00
51988;DHT22;38003;52.012;4.346;2022-07-05T06:54:25;21.00;53.30
51988;DHT22;38003;52.012;4.346;2022-07-05T06:57:13;21.00;53.70
51988;DHT22;38003;52.012;4.346;2022-07-05T06:59:58;21.20;53.70
51988;DHT22;38003;52.012;4.346;2022-07-05T07:02:29;21.00;53.30
51988;DHT22;38003;52.012;4.346;2022-07-05T07:04:57;20.90;53.20
51988;DHT22;38003;52.012;4.346;2022-07-05T07:07:42;21.00;52.90
51988;DHT22;38003;52.012;4.346;2022-07-05T07:10:29;21.00;52.80
51988;DHT22;38003;52.012;4.346;2022-07-05T07:12:58;20.80;52.40
51988;DHT22;38003;52.012;4.346;2022-07-05T07:15:26;21.20;53.00
51988;DHT22;38003;52.012;4.346;2022-07-05T07:17:56;21.20;52.40
51988;DHT22;38003;52.012;4.346;2022-07-05T07:20:24;21.00;51.30
51988;DHT22;38003;52.012;4.346;2022-07-05T07:22:52;20.90;51.70
51988;DHT22;38003;52.012;4.346;2022-07-05T07:25:21;21.00;51.90
51988;DHT22;38003;52.012;4.346;2022-07-05T07:27:51;20.90;52.00
51988;DHT22;38003;52.012;4.346;2022-07-05T07:30:21;21.00;52.20
51988;DHT22;38003;52.012;4.346;2022-07-05T07:32:49;21.20;52.30
51988;DHT22;38003;52.012;4.346;2022-07-05T07:35:19;21.20;53.10
51988;DHT22;38003;52.012;4.346;2022-07-05T07:37:47;21.20;52.20
51988;DHT22;38003;52.012;4.346;2022-07-05T07:40:16;21.10;52.10
51988;DHT22;38003;52.012;4.346;2022-07-05T07:42:44;21.10;51.70
51988;DHT22;38003;52.012;4.346;2022-07-05T07:45:12;21.10;51.70
51988;DHT22;38003;52.012;4.346;2022-07-05T07:47:40;21.30;51.50
51988;DHT22;38003;52.012;4.346;2022-07-05T07:50:09;21.20;51.60
51988;DHT22;38003;52.012;4.346;2022-07-05T07:52:39;21.30;51.80
51988;DHT22;38003;52.012;4.346;2022-07-05T07:55:07;21.50;52.00
51988;DHT22;38003;52.012;4.346;2022-07-05T07:57:36;21.50;51.90
51988;DHT22;38003;52.012;4.346;2022-07-05T08:00:05;21.40;52.20
51988;DHT22;38003;52.012;4.346;2022-07-05T08:02:33;21.50;52.10
51988;DHT22;38003;52.012;4.346;2022-07-05T08:05:01;21.60;52.30
51988;DHT22;38003;52.012;4.346;2022-07-05T08:07:31;21.60;52.30
51988;DHT22;38003;52.012;4.346;2022-07-05T08:10:01;21.50;51.80
51988;DHT22;38003;52.012;4.346;2022-07-05T08:12:28;21.70;51.70
51988;DHT22;38003;52.012;4.346;2022-07-05T08:14:57;21.80;51.60
51988;DHT22;38003;52.012;4.346;2022-07-05T08:17:25;21.70;51.70
51988;DHT22;38003;52.012;4.346;2022-07-05T08:19:53;21.60;51.80
51988;DHT22;38003;52.012;4.346;2022-07-05T08:22:39;21.60;52.00
51988;DHT22;38003;52.012;4.346;2022-07-05T08:25:09;21.50;51.90
51988;DHT22;38003;52.012;4.346;2022-07-05T08:27:37;21.30;52.20
51988;DHT22;38003;52.012;4.346;2022-07-05T08:30:06;21.40;52.10
51988;DHT22;38003;52.012;4.346;2022-07-05T08:32:34;21.50;52.30
51988;DHT22;38003;52.012;4.346;2022-07-05T08:35:03;21.40;51.90
51988;DHT22;38003;52.012;4.346;2022-07-05T08:37:31;21.40;51.70
51988;DHT22;38003;52.012;4.346;2022-07-05T08:39:59;21.50;51.60
51988;DHT22;38003;52.012;4.346;2022-07-05T08:42:29;21.70;51.80
51988;DHT22;38003;52.012;4.346;2022-07-05T08:44:58;21.70;51.30
51988;DHT22;38003;52.012;4.346;2022-07-05T08:47:26;21.70;51.30
51988;DHT22;38003;52.012;4.346;2022-07-05T08:49:56;21.70;51.90
51988;DHT22;38003;52.012;4.346;2022-07-05T08:52:26;21.80;51.80
51988;DHT22;38003;52.012;4.346;2022-07-05T08:54:55;21.70;52.00
51988;DHT22;38003;52.012;4.346;2022-07-05T08:57:24;21.80;52.00
51988;DHT22;38003;52.012;4.346;2022-07-05T08:59:54;21.90;51.90
51988;DHT22;38003;52.012;4.346;2022-07-05T09:02:22;21.90;52.00
51988;DHT22;38003;52.012;4.346;2022-07-05T09:04:50;22.00;51.70
51988;DHT22;38003;52.012;4.346;2022-07-05T09:07:20;22.00;51.50
51988;DHT22;38003;52.012;4.346;2022-07-05T09:09:49;22.10;51.20
51988;DHT22;38003;52.012;4.346;2022-07-05T09:12:18;21.90;51.30
51988;DHT22;38003;52.012;4.346;2022-07-05T09:14:54;22.00;51.40
51988;DHT22;38003;52.012;4.346;2022-07-05T09:17:23;22.00;51.30
51988;DHT22;38003;52.012;4.346;2022-07-05T09:20:07;22.00;51.30
51988;DHT22;38003;52.012;4.346;2022-07-05T09:22:46;22.10;51.30
51988;DHT22;38003;52.012;4.346;2022-07-05T09:25:20;22.00;50.90
51988;DHT22;38003;52.012;4.346;2022-07-05T09:27:54;22.00;52.10
51988;DHT22;38003;52.012;4.346;2022-07-05T09:30:26;22.10;50.70
51988;DHT22;38003;52.012;4.346;2022-07-05T09:33:06;22.00;51.00
51988;DHT22;38003;52.012;4.346;2022-07-05T09:35:36;22.00;51.10
51988;DHT22;38003;52.012;4.346;2022-07-05T09:38:05;22.10;50.80
51988;DHT22;38003;52.012;4.346;2022-07-05T09:40:45;22.10;50.80
51988;DHT22;38003;52.012;4.346;2022-07-05T09:43:15;22.10;49.90
51988;DHT22;38003;52.012;4.346;2022-07-05T09:45:53;22.20;49.80
51988;DHT22;38003;52.012;4.346;2022-07-05T09:48:22;22.40;50.50
51988;DHT22;38003;52.012;4.346;2022-07-05T09:51:04;22.10;50.40
51988;DHT22;38003;52.012;4.346;2022-07-05T09:53:53;22.10;50.50
51988;DHT22;38003;52.012;4.346;2022-07-05T09:56:27;22.00;50.70
51988;DHT22;38003;52.012;4.346;2022-07-05T09:59:12;22.00;50.00
51988;DHT22;38003;52.012;4.346;2022-07-05T10:01:42;22.00;49.80
51988;DHT22;38003;52.012;4.346;2022-07-05T10:04:10;22.10;50.00
51988;DHT22;38003;52.012;4.346;2022-07-05T10:06:38;22.00;48.80
51988;DHT22;38003;52.012;4.346;2022-07-05T10:09:08;21.90;48.00
51988;DHT22;38003;52.012;4.346;2022-07-05T10:11:39;22.00;48.80
51988;DHT22;38003;52.012;4.346;2022-07-05T10:14:12;21.90;47.70
51988;DHT22;38003;52.012;4.346;2022-07-05T10:16:46;22.00;47.80
51988;DHT22;38003;52.012;4.346;2022-07-05T10:19:18;21.90;47.50
51988;DHT22;38003;52.012;4.346;2022-07-05T10:21:48;22.10;47.40
51988;DHT22;38003;52.012;4.346;2022-07-05T10:24:37;22.20;48.20
51988;DHT22;38003;52.012;4.346;2022-07-05T10:27:07;22.30;47.80
51988;DHT22;38003;52.012;4.346;2022-07-05T10:29:36;22.30;46.90
51988;DHT22;38003;52.012;4.346;2022-07-05T10:32:08;22.10;47.50
51988;DHT22;38003;52.012;4.346;2022-07-05T10:34:37;22.10;46.90
51988;DHT22;38003;52.012;4.346;2022-07-05T10:37:28;22.20;46.40
51988;DHT22;38003;52.012;4.346;2022-07-05T10:39:57;22.30;46.70
51988;DHT22;38003;52.012;4.346;2022-07-05T10:42:28;22.40;46.00
51988;DHT22;38003;52.012;4.346;2022-07-05T10:44:57;22.40;45.90
51988;DHT22;38003;52.012;4.346;2022-07-05T10:47:27;22.50;45.80
51988;DHT22;38003;52.012;4.346;2022-07-05T10:50:00;22.60;45.60
51988;DHT22;38003;52.012;4.346;2022-07-05T10:52:29;22.60;45.70
51988;DHT22;38003;52.012;4.346;2022-07-05T10:55:22;23.10;45.30
51988;DHT22;38003;52.012;4.346;2022-07-05T10:58:22;22.80;43.80
51988;DHT22;38003;52.012;4.346;2022-07-05T11:04:28;22.80;43.70
51988;DHT22;38003;52.012;4.346;2022-07-05T11:07:01;23.00;43.70
51988;DHT22;38003;52.012;4.346;2022-07-05T11:09:30;23.10;44.50
51988;DHT22;38003;52.012;4.346;2022-07-05T11:12:07;23.10;43.70
51988;DHT22;38003;52.012;4.346;2022-07-05T11:15:04;23.30;43.60
51988;DHT22;38003;52.012;4.346;2022-07-05T11:17:32;23.60;43.80
51988;DHT22;38003;52.012;4.346;2022-07-05T11:20:29;23.60;42.20
51988;DHT22;38003;52.012;4.346;2022-07-05T11:23:08;23.70;43.30
51988;DHT22;38003;52.012;4.346;2022-07-05T11:25:39;23.60;41.50
51988;DHT22;38003;52.012;4.346;2022-07-05T11:28:12;23.80;42.90
51988;DHT22;38003;52.012;4.346;2022-07-05T11:30:45;24.00;42.80
51988;DHT22;38003;52.012;4.346;2022-07-05T11:33:30;24.20;43.10
51988;DHT22;38003;52.012;4.346;2022-07-05T11:36:00;24.40;44.70
51988;DHT22;38003;52.012;4.346;2022-07-05T11:38:30;24.40;42.50
51988;DHT22;38003;52.012;4.346;2022-07-05T11:41:18;24.50;43.10
51988;DHT22;38003;52.012;4.346;2022-07-05T11:43:55;24.60;41.80
51988;DHT22;38003;52.012;4.346;2022-07-05T11:46:24;24.60;42.20
51988;DHT22;38003;52.012;4.346;2022-07-05T11:49:19;24.40;43.00
51988;DHT22;38003;52.012;4.346;2022-07-05T11:51:55;24.20;43.20
51988;DHT22;38003;52.012;4.346;2022-07-05T11:54:24;24.30;42.90
51988;DHT22;38003;52.012;4.346;2022-07-05T11:56:52;24.40;43.10
51988;DHT22;38003;52.012;4.346;2022-07-05T11:59:21;24.40;43.60
51988;DHT22;38003;52.012;4.346;2022-07-05T12:01:50;24.20;41.80
51988;DHT22;38003;52.012;4.346;2022-07-05T12:04:22;24.10;42.50
51988;DHT22;38003;52.012;4.346;2022-07-05T12:06:51;23.90;42.40
51988;DHT22;38003;52.012;4.346;2022-07-05T12:09:25;23.80;43.60
51988;DHT22;38003;52.012;4.346;2022-07-05T12:11:55;23.90;43.70
51988;DHT22;38003;52.012;4.346;2022-07-05T12:14:48;23.60;43.80
51988;DHT22;38003;52.012;4.346;2022-07-05T12:17:17;23.50;43.50
51988;DHT22;38003;52.012;4.346;2022-07-05T12:19:52;23.30;42.40
51988;DHT22;38003;52.012;4.346;2022-07-05T12:22:31;23.00;42.40
51988;DHT22;38003;52.012;4.346;2022-07-05T12:25:01;23.10;44.00
51988;DHT22;38003;52.012;4.346;2022-07-05T12:27:31;23.10;43.50
51988;DHT22;38003;52.012;4.346;2022-07-05T12:29:59;23.10;44.90
51988;DHT22;38003;52.012;4.346;2022-07-05T12:32:31;23.10;42.70
51988;DHT22;38003;52.012;4.346;2022-07-05T12:34:59;23.30;43.00
51988;DHT22;38003;52.012;4.346;2022-07-05T12:37:33;23.30;43.90
51988;DHT22;38003;52.012;4.346;2022-07-05T12:40:05;23.40;43.40
51988;DHT22;38003;52.012;4.346;2022-07-05T12:42:34;23.20;43.20
51988;DHT22;38003;52.012;4.346;2022-07-05T12:45:12;23.30;44.10
51988;DHT22;38003;52.012;4.346;2022-07-05T12:47:48;23.40;43.30
51988;DHT22;38003;52.012;4.346;2022-07-05T12:50:17;23.80;44.10
51988;DHT22;38003;52.012;4.346;2022-07-05T12:53:02;23.80;44.40
51988;DHT22;38003;52.012;4.346;2022-07-05T12:56:00;24.00;43.50
51988;DHT22;38003;52.012;4.346;2022-07-05T12:58:46;23.70;45.10
51988;DHT22;38003;52.012;4.346;2022-07-05T13:01:25;23.60;44.80
51988;DHT22;38003;52.012;4.346;2022-07-05T13:03:58;23.70;45.10
51988;DHT22;38003;52.012;4.346;2022-07-05T13:06:43;23.80;44.50
51988;DHT22;38003;52.012;4.346;2022-07-05T13:09:13;23.70;44.10
51988;DHT22;38003;52.012;4.346;2022-07-05T13:11:43;23.80;45.10
51988;DHT22;38003;52.012;4.346;2022-07-05T13:14:11;23.70;45.00
51988;DHT22;38003;52.012;4.346;2022-07-05T13:16:39;23.20;45.50
51988;DHT22;38003;52.012;4.346;2022-07-05T13:19:11;23.20;46.30
51988;DHT22;38003;52.012;4.346;2022-07-05T13:21:39;22.90;46.50
51988;DHT22;38003;52.012;4.346;2022-07-05T13:24:07;22.90;46.30
51988;DHT22;38003;52.012;4.346;2022-07-05T13:26:35;23.00;46.40
51988;DHT22;38003;52.012;4.346;2022-07-05T13:29:04;23.10;46.10
51988;DHT22;38003;52.012;4.346;2022-07-05T13:31:32;23.20;46.50
51988;DHT22;38003;52.012;4.346;2022-07-05T13:34:00;23.30;46.60
51988;DHT22;38003;52.012;4.346;2022-07-05T13:36:28;23.20;46.00
51988;DHT22;38003;52.012;4.346;2022-07-05T13:38:57;23.60;46.40
51988;DHT22;38003;52.012;4.346;2022-07-05T13:41:25;23.80;45.90
51988;DHT22;38003;52.012;4.346;2022-07-05T13:43:53;23.80;45.60
51988;DHT22;38003;52.012;4.346;2022-07-05T13:46:23;23.60;45.30
51988;DHT22;38003;52.012;4.346;2022-07-05T13:48:51;23.80;45.10
51988;DHT22;38003;52.012;4.346;2022-07-05T13:51:18;24.10;45.80
51988;DHT22;38003;52.012;4.346;2022-07-05T13:53:54;23.80;45.70
51988;DHT22;38003;52.012;4.346;2022-07-05T13:56:23;23.70;45.00
51988;DHT22;38003;52.012;4.346;2022-07-05T13:58:52;23.50;46.40
51988;DHT22;38003;52.012;4.346;2022-07-05T14:01:23;23.60;45.40
51988;DHT22;38003;52.012;4.346;2022-07-05T14:03:53;23.70;45.40
51988;DHT22;38003;52.012;4.346;2022-07-05T14:06:21;23.40;44.90
51988;DHT22;38003;52.012;4.346;2022-07-05T14:08:49;23.20;45.40
51988;DHT22;38003;52.012;4.346;2022-07-05T14:11:18;23.20;45.80
51988;DHT22;38003;52.012;4.346;2022-07-05T14:13:46;23.10;46.00
51988;DHT22;38003;52.012;4.346;2022-07-05T14:16:13;23.10;45.50
51988;DHT22;38003;52.012;4.346;2022-07-05T14:18:43;23.20;44.90
51988;DHT22;38003;52.012;4.346;2022-07-05T14:21:11;23.20;45.20
51988;DHT22;38003;52.012;4.346;2022-07-05T14:23:43;23.30;45.50
51988;DHT22;38003;52.012;4.346;2022-07-05T14:26:13;23.30;45.80
51988;DHT22;38003;52.012;4.346;2022-07-05T14:28:41;23.10;45.40
51988;DHT22;38003;52.012;4.346;2022-07-05T14:31:10;23.10;45.70
51988;DHT22;38003;52.012;4.346;2022-07-05T14:33:38;22.90;44.70
51988;DHT22;38003;52.012;4.346;2022-07-05T14:36:09;22.90;45.70
51988;DHT22;38003;52.012;4.346;2022-07-05T14:38:37;22.80;45.30
51988;DHT22;38003;52.012;4.346;2022-07-05T14:41:05;22.80;46.00
51988;DHT22;38003;52.012;4.346;2022-07-05T14:43:33;22.90;46.30
51988;DHT22;38003;52.012;4.346;2022-07-05T14:46:01;23.00;45.90
51988;DHT22;38003;52.012;4.346;2022-07-05T14:48:29;23.00;45.80
51988;DHT22;38003;52.012;4.346;2022-07-05T14:50:57;23.00;45.90
51988;DHT22;38003;52.012;4.346;2022-07-05T14:53:27;23.00;46.00
51988;DHT22;38003;52.012;4.346;2022-07-05T14:55:55;22.80;45.30
51988;DHT22;38003;52.012;4.346;2022-07-05T14:58:23;22.60;46.20
51988;DHT22;38003;52.012;4.346;2022-07-05T15:00:52;22.70;46.20
51988;DHT22;38003;52.012;4.346;2022-07-05T15:03:22;22.60;45.40
51988;DHT22;38003;52.012;4.346;2022-07-05T15:05:50;22.60;45.80
51988;DHT22;38003;52.012;4.346;2022-07-05T15:08:19;22.70;46.00
51988;DHT22;38003;52.012;4.346;2022-07-05T15:10:48;22.40;46.20
51988;DHT22;38003;52.012;4.346;2022-07-05T15:13:18;22.50;46.70
51988;DHT22;38003;52.012;4.346;2022-07-05T15:15:47;22.50;46.80
51988;DHT22;38003;52.012;4.346;2022-07-05T15:18:15;22.40;46.70
51988;DHT22;38003;52.012;4.346;2022-07-05T15:20:43;22.40;47.10
51988;DHT22;38003;52.012;4.346;2022-07-05T15:23:11;22.20;46.70
51988;DHT22;38003;52.012;4.346;2022-07-05T15:25:39;22.10;46.20
51988;DHT22;38003;52.012;4.346;2022-07-05T15:28:08;22.10;47.00
51988;DHT22;38003;52.012;4.346;2022-07-05T15:30:37;22.00;46.10
51988;DHT22;38003;52.012;4.346;2022-07-05T15:33:05;21.80;46.60
51988;DHT22;38003;52.012;4.346;2022-07-05T15:35:34;21.90;46.70
51988;DHT22;38003;52.012;4.346;2022-07-05T15:38:02;22.00;46.20
51988;DHT22;38003;52.012;4.346;2022-07-05T15:40:31;21.90;47.10
51988;DHT22;38003;52.012;4.346;2022-07-05T15:42:59;21.90;46.90
51988;DHT22;38003;52.012;4.346;2022-07-05T15:45:28;21.90;47.10
51988;DHT22;38003;52.012;4.346;2022-07-05T15:47:56;22.30;47.50
51988;DHT22;38003;52.012;4.346;2022-07-05T15:50:24;22.20;47.20
51988;DHT22;38003;52.012;4.346;2022-07-05T15:52:52;21.90;47.10
51988;DHT22;38003;52.012;4.346;2022-07-05T15:55:20;21.70;47.10